Time;durP1;ratioP1;P1;durP2;ratioP2;P2;SDS_P1;SDS_P2;PMS_P1;PMS_P2;Temp;Humidity;BMP_temperature;BMP_pressure;BME280_temperature;BME280_humidity;BME280_pressure;Samples;Min_cycle;Max_cycle;Signal;HPM_P1;HPM_P2
2019/08/15 00:02:15;;;;;;;6.7;5;;;;;;;15.31;73.56934;961.3571;;;;
2019/08/15 00:04:30;;;;;;;8;5;;;;;;;15.27;73.40234;961.3578;;;;
2019/08/15 00:06:52;;;;;;;6.9;4.6;;;;;;;15.34;71.87695;961.358;;;;
2019/08/15 00:09:17;;;;;;;6.2;4.6;;;;;;;15.27;72.66797;961.3767;;;;
2019/08/15 00:11:42;;;;;;;8.8;4.9;;;;;;;15.18;71.37207;961.3591;;;;
2019/08/15 00:14:07;;;;;;;7;4.6;;;;;;;15.13;72.56055;961.2537;;;;
2019/08/15 00:16:32;;;;;;;6.6;4.6;;;;;;;15.21;72.76074;961.2189;;;;
2019/08/15 00:18:58;;;;;;;7.7;4.8;;;;;;;15.18;72.98828;961.2006;;;;
2019/08/15 00:21:23;;;;;;;6.2;4.6;;;;;;;15.07;73.33301;961.1894;;;;
2019/08/15 00:23:48;;;;;;;8.5;4.4;;;;;;;15.02;73.61426;961.1476;;;;
2019/08/15 00:26:13;;;;;;;7.6;3.9;;;;;;;15.05;73.13086;961.1577;;;;
2019/08/15 00:28:38;;;;;;;5;3.8;;;;;;;15.03;74.56934;961.1566;;;;
2019/08/15 00:31:03;;;;;;;5.7;4;;;;;;;14.92;75.0957;961.1683;;;;
2019/08/15 00:33:28;;;;;;;5;3.6;;;;;;;15.01;73.1709;961.1392;;;;
2019/08/15 00:35:53;;;;;;;6.9;4.1;;;;;;;14.89;74.7793;961.1434;;;;
2019/08/15 00:38:18;;;;;;;5.3;3.5;;;;;;;14.87;74.05371;961.1699;;;;
2019/08/15 00:40:43;;;;;;;5.7;3.4;;;;;;;14.81;73.9502;961.168;;;;
2019/08/15 00:43:08;;;;;;;5.2;3.4;;;;;;;14.85;74.12012;961.1353;;;;
2019/08/15 00:45:34;;;;;;;4.7;3.5;;;;;;;14.93;72.91309;961.0988;;;;
2019/08/15 00:47:59;;;;;;;6;3.3;;;;;;;14.74;73.92773;961.1494;;;;
2019/08/15 00:50:24;;;;;;;6.7;3.9;;;;;;;14.61;74.37109;961.1151;;;;
2019/08/15 00:52:49;;;;;;;5.3;3.6;;;;;;;14.56;75.58203;961.0941;;;;
2019/08/15 00:55:14;;;;;;;4.8;3.4;;;;;;;14.64;74.71289;961.1063;;;;
2019/08/15 00:57:39;;;;;;;3.7;3.3;;;;;;;14.74;75.14746;961.0804;;;;
2019/08/15 01:00:04;;;;;;;4.2;3.4;;;;;;;14.69;75.55664;961.1238;;;;
2019/08/15 01:02:29;;;;;;;7;4.2;;;;;;;14.68;75.64844;961.0596;;;;
2019/08/15 01:05:02;;;;;;;5;3.6;;;;;;;14.59;75.96973;961.0115;;;;
2019/08/15 01:07:19;;;;;;;5.7;4.1;;;;;;;14.49;76.8584;960.9788;;;;
2019/08/15 01:09:45;;;;;;;4.8;3.6;;;;;;;14.57;76.64063;960.9542;;;;
2019/08/15 01:12:10;;;;;;;4.6;3.7;;;;;;;14.47;76.12207;960.9547;;;;
2019/08/15 01:14:35;;;;;;;5.5;3.8;;;;;;;14.64;74.73438;960.9299;;;;
2019/08/15 01:17:00;;;;;;;6.2;3.8;;;;;;;14.59;75.72559;960.9213;;;;
2019/08/15 01:19:25;;;;;;;4.8;3.9;;;;;;;14.38;76.31543;960.9419;;;;
2019/08/15 01:21:51;;;;;;;4.4;3.4;;;;;;;14.32;77.22266;960.9341;;;;
2019/08/15 01:24:16;;;;;;;5.5;3.6;;;;;;;14.33;77.08496;960.9032;;;;
2019/08/15 01:26:41;;;;;;;6.3;3.7;;;;;;;14.29;76.53223;960.8223;;;;
2019/08/15 01:29:06;;;;;;;6.2;3.6;;;;;;;14.32;77.28125;960.8414;;;;
2019/08/15 01:31:31;;;;;;;7.8;3.5;;;;;;;14.19;77.70996;960.821;;;;
2019/08/15 01:33:56;;;;;;;6.8;3.9;;;;;;;14.15;77.76172;960.8615;;;;
2019/08/15 01:36:23;;;;;;;5.1;3.4;;;;;;;14.23;77.84375;960.8564;;;;
2019/08/15 01:38:46;;;;;;;5;3.3;;;;;;;14.37;76.26855;960.823;;;;
2019/08/15 01:41:12;;;;;;;5.3;3.4;;;;;;;14.33;76.37695;960.7876;;;;
2019/08/15 01:43:37;;;;;;;4.2;3.4;;;;;;;14.31;75.86133;960.7924;;;;
2019/08/15 01:46:08;;;;;;;4.6;3.4;;;;;;;14.24;76.89355;960.6509;;;;
2019/08/15 01:48:28;;;;;;;6.9;3.4;;;;;;;14.18;76.58301;960.688;;;;
2019/08/15 01:50:52;;;;;;;5.5;3.3;;;;;;;14.15;76.85645;960.6462;;;;
2019/08/15 01:53:17;;;;;;;4.8;3.3;;;;;;;14.25;76.85059;960.6976;;;;
2019/08/15 01:55:43;;;;;;;5.6;3.5;;;;;;;14.04;77.23047;960.6478;;;;
2019/08/15 01:58:08;;;;;;;5.8;3.6;;;;;;;14.08;77.25;960.666;;;;
2019/08/15 02:00:39;;;;;;;4.2;3.1;;;;;;;14.33;74.91602;960.6367;;;;
2019/08/15 02:02:58;;;;;;;5.8;3.6;;;;;;;14.18;76.45508;960.6241;;;;
2019/08/15 02:05:23;;;;;;;4.6;3.4;;;;;;;14.15;76.54297;960.5823;;;;
2019/08/15 02:07:48;;;;;;;4.4;3.3;;;;;;;14.15;76.32227;960.5905;;;;
2019/08/15 02:10:13;;;;;;;8;3.4;;;;;;;14.07;76.19238;960.5259;;;;
2019/08/15 02:12:38;;;;;;;4.9;3.1;;;;;;;14.12;75.93359;960.5396;;;;
2019/08/15 02:15:04;;;;;;;6;3.6;;;;;;;14.04;77.28809;960.4799;;;;
2019/08/15 02:17:29;;;;;;;4.4;3;;;;;;;14.11;76.35156;960.5097;;;;
2019/08/15 02:19:54;;;;;;;4.9;3.7;;;;;;;14.06;75.91113;960.4551;;;;
2019/08/15 02:22:19;;;;;;;4.9;3.5;;;;;;;14.15;76.02051;960.4681;;;;
2019/08/15 02:24:44;;;;;;;6.4;3.6;;;;;;;13.96;77.1582;960.3833;;;;
2019/08/15 02:27:09;;;;;;;5.3;3.3;;;;;;;13.99;77.0498;960.4072;;;;
2019/08/15 02:29:34;;;;;;;6;3.2;;;;;;;14.24;75.1416;960.3886;;;;
2019/08/15 02:31:59;;;;;;;5.5;3.2;;;;;;;14.04;75.93262;960.2774;;;;
2019/08/15 02:34:25;;;;;;;6.1;3.5;;;;;;;13.93;75.87793;960.2667;;;;
2019/08/15 02:36:49;;;;;;;4.5;3.3;;;;;;;13.85;76.06055;960.2833;;;;
2019/08/15 02:39:16;;;;;;;3.3;3;;;;;;;13.79;76.58496;960.2476;;;;
2019/08/15 02:41:40;;;;;;;5.8;3.3;;;;;;;13.73;77.45508;960.2601;;;;
2019/08/15 02:44:05;;;;;;;4.6;3.2;;;;;;;13.69;76.85547;960.2486;;;;
2019/08/15 02:46:30;;;;;;;5.5;3.2;;;;;;;13.66;77.09375;960.2024;;;;
2019/08/15 02:48:55;;;;;;;5.7;3.2;;;;;;;13.62;78.41895;960.2227;;;;
2019/08/15 02:51:20;;;;;;;4.7;3.3;;;;;;;13.58;78.07617;960.1591;;;;
2019/08/15 02:53:45;;;;;;;4.7;3;;;;;;;13.6;77.3623;960.1135;;;;
2019/08/15 02:56:11;;;;;;;4;3.1;;;;;;;13.62;76.64551;960.1105;;;;
2019/08/15 03:01:28;;;;;;;4.4;3.1;;;;;;;13.73;76.28418;960.1213;;;;
2019/08/15 03:03:28;;;;;;;5.3;3.2;;;;;;;13.61;76.70215;960.1306;;;;
2019/08/15 03:05:52;;;;;;;4.6;3.2;;;;;;;13.45;78.20508;960.0476;;;;
2019/08/15 03:08:16;;;;;;;4.6;3.4;;;;;;;13.51;77.98242;960.1202;;;;
2019/08/15 03:10:41;;;;;;;5.6;3.4;;;;;;;13.59;77.08105;960.1406;;;;
2019/08/15 03:13:07;;;;;;;5.4;3;;;;;;;13.69;75.75391;960.1208;;;;
2019/08/15 03:15:32;;;;;;;3.5;2.9;;;;;;;13.59;77.3252;960.089;;;;
2019/08/15 03:17:57;;;;;;;8.4;3.3;;;;;;;13.59;77.2207;960.0382;;;;
2019/08/15 03:20:22;;;;;;;5.4;3.3;;;;;;;13.45;78.48242;960.0427;;;;
2019/08/15 03:22:47;;;;;;;5.8;3.4;;;;;;;13.45;77.64844;960.0173;;;;
2019/08/15 03:25:13;;;;;;;5.1;3;;;;;;;13.51;76.87012;959.9933;;;;
2019/08/15 03:27:38;;;;;;;5.9;3.1;;;;;;;13.37;78.27148;959.9878;;;;
2019/08/15 03:30:03;;;;;;;5;3.4;;;;;;;13.28;78.42773;959.9878;;;;
2019/08/15 03:32:28;;;;;;;5.6;3.1;;;;;;;13.3;78.55957;959.98;;;;
2019/08/15 03:34:53;;;;;;;4.6;3.2;;;;;;;13.27;78.82129;959.9503;;;;
2019/08/15 03:37:19;;;;;;;4;3.3;;;;;;;13.25;78.68848;959.9742;;;;
2019/08/15 03:39:44;;;;;;;4.2;3.1;;;;;;;13.47;76.81934;959.9283;;;;
2019/08/15 03:42:10;;;;;;;5.2;3;;;;;;;13.46;78.09082;959.9013;;;;
2019/08/15 03:44:34;;;;;;;5.3;3.1;;;;;;;13.36;78.92969;959.9101;;;;
2019/08/15 03:47:01;;;;;;;4.7;3.3;;;;;;;13.48;76.92383;959.9021;;;;
2019/08/15 03:49:25;;;;;;;4.1;3.2;;;;;;;13.26;77.89258;959.8954;;;;
2019/08/15 03:51:50;;;;;;;4.8;3.4;;;;;;;13.22;77.93164;959.9109;;;;
2019/08/15 03:54:15;;;;;;;4.9;3.1;;;;;;;13.2;78.1582;959.9658;;;;
2019/08/15 03:56:40;;;;;;;4.3;3.2;;;;;;;13.23;78.83594;959.9252;;;;
2019/08/15 03:59:06;;;;;;;6.3;3.3;;;;;;;13.18;78.7334;959.9769;;;;
2019/08/15 04:02:27;;;;;;;4.6;3;;;;;;;13.24;78.90723;959.9496;;;;
2019/08/15 04:04:52;;;;;;;4.9;3.1;;;;;;;13.11;78.43164;959.9722;;;;
2019/08/15 04:07:17;;;;;;;4.6;3.3;;;;;;;13.15;78.99512;959.9717;;;;
2019/08/15 04:09:46;;;;;;;4.6;3.2;;;;;;;13.28;78.18555;959.9952;;;;
2019/08/15 04:12:07;;;;;;;4;3;;;;;;;13.18;78.43262;959.9474;;;;
2019/08/15 04:14:32;;;;;;;4.4;3.2;;;;;;;13.13;79.17676;959.9747;;;;
2019/08/15 04:17:03;;;;;;;3.9;3.1;;;;;;;13.23;79.18359;959.9202;;;;
2019/08/15 04:19:23;;;;;;;3.7;2.9;;;;;;;13.13;79.14258;959.8809;;;;
2019/08/15 04:21:57;;;;;;;5.7;3.2;;;;;;;13.08;79.49316;959.9016;;;;
2019/08/15 04:24:16;;;;;;;5.1;3.1;;;;;;;13.3;78.43164;959.9235;;;;
2019/08/15 04:26:38;;;;;;;4.5;3.1;;;;;;;13.21;78.69434;959.8544;;;;
2019/08/15 04:29:03;;;;;;;4.2;3;;;;;;;13.21;78.39453;959.8929;;;;
2019/08/15 04:31:28;;;;;;;4.6;3.2;;;;;;;13.07;78.92383;959.8909;;;;
2019/08/15 04:33:53;;;;;;;6.2;3.2;;;;;;;13.21;78.47363;959.9044;;;;
2019/08/15 04:36:18;;;;;;;4.7;3;;;;;;;13.27;77.77832;959.8749;;;;
2019/08/15 04:38:43;;;;;;;3.9;3.3;;;;;;;13.27;78.19434;959.8577;;;;
2019/08/15 04:41:08;;;;;;;4.3;3.4;;;;;;;13.19;78.79492;959.8503;;;;
2019/08/15 04:43:33;;;;;;;4;3;;;;;;;13.11;79.40332;959.9133;;;;
2019/08/15 04:45:59;;;;;;;6.2;3.1;;;;;;;13.13;79.50098;959.9108;;;;
2019/08/15 04:48:24;;;;;;;3.4;3;;;;;;;13.17;79.35742;959.877;;;;
2019/08/15 04:50:49;;;;;;;5.4;3.5;;;;;;;13.2;78.98145;959.8635;;;;
2019/08/15 04:53:14;;;;;;;5.7;3;;;;;;;13.35;78.11621;959.8332;;;;
2019/08/15 04:55:39;;;;;;;4.4;3;;;;;;;13.38;78.43359;959.8097;;;;
2019/08/15 04:58:04;;;;;;;6.4;3.3;;;;;;;13.18;79;959.8361;;;;
2019/08/15 05:00:29;;;;;;;3.7;3.2;;;;;;;13.19;79.53613;959.7841;;;;
2019/08/15 05:02:55;;;;;;;4.9;3.3;;;;;;;13.21;79.14551;959.8683;;;;
2019/08/15 05:05:20;;;;;;;4.8;3.1;;;;;;;13.25;78.12109;959.9082;;;;
2019/08/15 05:07:45;;;;;;;4.9;3;;;;;;;13.32;77.96094;959.8566;;;;
2019/08/15 05:10:10;;;;;;;5.8;3.3;;;;;;;13.39;76.63965;959.9137;;;;
2019/08/15 05:12:35;;;;;;;5;3.3;;;;;;;13.36;77.52832;959.9199;;;;
2019/08/15 05:15:00;;;;;;;3.8;3.1;;;;;;;13.57;76.29004;959.9127;;;;
2019/08/15 05:17:25;;;;;;;6;3.1;;;;;;;13.55;77.28418;959.869;;;;
2019/08/15 05:19:50;;;;;;;5.4;3.1;;;;;;;13.44;77.33398;959.8494;;;;
2019/08/15 05:22:15;;;;;;;4.2;3.1;;;;;;;13.46;77.64844;959.8354;;;;
2019/08/15 05:24:41;;;;;;;4;3;;;;;;;13.55;77.0752;959.8702;;;;
2019/08/15 05:27:06;;;;;;;3.8;3.2;;;;;;;13.59;77.38281;959.8933;;;;
2019/08/15 05:29:31;;;;;;;5.1;2.7;;;;;;;13.66;77.2334;959.87;;;;
2019/08/15 05:31:56;;;;;;;3.8;3;;;;;;;13.8;76.48047;959.8628;;;;
2019/08/15 05:34:21;;;;;;;3.6;2.9;;;;;;;13.84;76.37207;959.85;;;;
2019/08/15 05:36:46;;;;;;;4.4;3.1;;;;;;;13.89;76.3584;959.8512;;;;
2019/08/15 05:39:11;;;;;;;3.4;2.7;;;;;;;13.85;77.18555;959.8286;;;;
2019/08/15 05:41:36;;;;;;;5.9;3.1;;;;;;;13.96;75.5127;959.8326;;;;
2019/08/15 05:44:01;;;;;;;3.8;2.7;;;;;;;14.04;76.41797;959.8284;;;;
2019/08/15 05:46:26;;;;;;;3.8;3;;;;;;;14.13;75.95801;959.7879;;;;
2019/08/15 05:48:51;;;;;;;3.9;2.8;;;;;;;14.14;76.73926;959.8181;;;;
2019/08/15 05:51:17;;;;;;;3.4;2.6;;;;;;;14.19;76.83984;959.7555;;;;
2019/08/15 05:53:42;;;;;;;5;3;;;;;;;14.21;77.72656;959.7868;;;;
2019/08/15 05:56:07;;;;;;;4.8;2.8;;;;;;;14.38;75.94336;959.7645;;;;
2019/08/15 05:58:32;;;;;;;3.2;2.8;;;;;;;14.35;75.77832;959.8159;;;;
2019/08/15 06:00:57;;;;;;;2.9;2.6;;;;;;;14.52;76.07324;959.7908;;;;
2019/08/15 06:03:22;;;;;;;3.9;2.9;;;;;;;14.47;75.56445;959.7952;;;;
2019/08/15 06:05:47;;;;;;;3.6;2.6;;;;;;;14.55;75.36914;959.8083;;;;
2019/08/15 06:08:12;;;;;;;5.3;2.8;;;;;;;14.7;75.0127;959.8014;;;;
2019/08/15 06:10:37;;;;;;;4.6;2.6;;;;;;;14.81;75.42578;959.8141;;;;
2019/08/15 06:13:02;;;;;;;4.1;2.6;;;;;;;14.78;74.79395;959.7886;;;;
2019/08/15 06:15:27;;;;;;;3.9;2.6;;;;;;;14.9;74.28027;959.8028;;;;
2019/08/15 06:17:52;;;;;;;4.3;2.6;;;;;;;14.93;74.26172;959.7209;;;;
2019/08/15 06:20:18;;;;;;;5.2;2.7;;;;;;;15;75.53027;959.7054;;;;
2019/08/15 06:22:43;;;;;;;4.8;2.7;;;;;;;14.94;75.16992;959.6766;;;;
2019/08/15 06:25:18;;;;;;;3.9;2.7;;;;;;;14.96;76.40723;959.6677;;;;
2019/08/15 06:27:43;;;;;;;3.2;2.5;;;;;;;15.22;73.98535;959.7524;;;;
2019/08/15 06:30:08;;;;;;;3.9;2.6;;;;;;;15.3;74.24316;959.7181;;;;
2019/08/15 06:32:33;;;;;;;5.6;2.7;;;;;;;15.33;74.92188;959.7502;;;;
2019/08/15 06:34:58;;;;;;;3.7;3;;;;;;;15.36;74.2168;959.7026;;;;
2019/08/15 06:37:25;;;;;;;3.9;2.4;;;;;;;15.53;73.40918;959.7281;;;;
2019/08/15 06:39:51;;;;;;;3.4;2.7;;;;;;;15.59;73.13867;959.738;;;;
2019/08/15 06:42:16;;;;;;;3.4;2.5;;;;;;;15.62;72.65625;959.7445;;;;
2019/08/15 06:44:41;;;;;;;4;2.7;;;;;;;15.69;71.0957;959.6774;;;;
2019/08/15 06:47:06;;;;;;;3.8;2.7;;;;;;;15.59;73.58301;959.7166;;;;
2019/08/15 06:49:31;;;;;;;3.9;2.5;;;;;;;15.78;73.2168;959.6995;;;;
2019/08/15 06:51:56;;;;;;;4.3;2.4;;;;;;;15.89;71.78027;959.7035;;;;
2019/08/15 06:54:21;;;;;;;3;2.5;;;;;;;16.05;72.48242;959.7294;;;;
2019/08/15 07:06:43;;;;;;;4.9;2.6;;;;;;;16.26;69.70605;959.7397;;;;
2019/08/15 07:09:08;;;;;;;5.6;2.6;;;;;;;16.25;67.74609;959.7562;;;;
2019/08/15 07:11:33;;;;;;;6.9;2.4;;;;;;;16.26;67.52734;959.6959;;;;
2019/08/15 07:13:58;;;;;;;6;2.4;;;;;;;16.3;67.96387;959.6961;;;;
2019/08/15 07:16:23;;;;;;;4.1;2.4;;;;;;;16.25;68.44531;959.6904;;;;
2019/08/15 07:18:48;;;;;;;5.2;2.4;;;;;;;16.26;68.77344;959.738;;;;
2019/08/15 07:21:13;;;;;;;5.8;2.5;;;;;;;16.3;68.85059;959.7372;;;;
2019/08/15 07:23:38;;;;;;;3.8;2.4;;;;;;;16.55;68.87793;959.6976;;;;
2019/08/15 07:26:03;;;;;;;4.9;2.5;;;;;;;16.56;68.87793;959.6877;;;;
2019/08/15 07:28:28;;;;;;;3.5;2.1;;;;;;;16.73;69.15137;959.6516;;;;
2019/08/15 07:30:54;;;;;;;4.2;2.1;;;;;;;16.94;68.41504;959.6284;;;;
2019/08/15 07:33:19;;;;;;;4.6;2.5;;;;;;;16.8;68.24023;959.5945;;;;
2019/08/15 07:35:44;;;;;;;3.5;2.4;;;;;;;16.97;67.77637;959.606;;;;
2019/08/15 07:38:09;;;;;;;3.1;2.2;;;;;;;16.98;68.11523;959.587;;;;
2019/08/15 07:40:34;;;;;;;7.6;2.5;;;;;;;17.03;66.78027;959.5736;;;;
2019/08/15 07:42:59;;;;;;;6.7;2.7;;;;;;;17.21;66.24707;959.5461;;;;
2019/08/15 07:45:24;;;;;;;7.8;2.6;;;;;;;17.1;69.53711;959.5277;;;;
2019/08/15 07:47:49;;;;;;;3.8;2.3;;;;;;;17.34;68.07715;959.541;;;;
2019/08/15 07:50:14;;;;;;;3.5;2.1;;;;;;;17.6;66.73926;959.5579;;;;
2019/08/15 07:52:39;;;;;;;3.4;2.4;;;;;;;17.6;66.46973;959.6016;;;;
2019/08/15 07:55:04;;;;;;;3.6;2.2;;;;;;;17.51;65.91992;959.5865;;;;
2019/08/15 07:57:29;;;;;;;4.3;2.1;;;;;;;17.54;66.10938;959.6161;;;;
2019/08/15 07:59:55;;;;;;;4.9;2.5;;;;;;;17.61;66.2373;959.5999;;;;
2019/08/15 08:02:20;;;;;;;3.1;2.2;;;;;;;17.81;65.74023;959.6091;;;;
2019/08/15 08:04:45;;;;;;;7.2;2.4;;;;;;;17.81;67.56543;959.6702;;;;
2019/08/15 08:07:10;;;;;;;3.4;2.2;;;;;;;17.83;65.7666;959.66;;;;
2019/08/15 08:09:35;;;;;;;3.6;2.2;;;;;;;17.86;65.29199;959.6631;;;;
2019/08/15 08:12:00;;;;;;;3.5;2.4;;;;;;;18.01;65.44336;959.6525;;;;
2019/08/15 08:14:25;;;;;;;5.8;2.4;;;;;;;18.09;65.02051;959.6361;;;;
2019/08/15 08:16:50;;;;;;;3.7;2.7;;;;;;;18.22;66.11816;959.663;;;;
2019/08/15 08:19:16;;;;;;;3.7;2.3;;;;;;;18.53;63.49121;959.628;;;;
2019/08/15 08:21:41;;;;;;;4;2.3;;;;;;;18.37;64.8877;959.6877;;;;
2019/08/15 08:24:06;;;;;;;5.2;2.4;;;;;;;18.58;63.78027;959.6407;;;;
2019/08/15 08:26:31;;;;;;;3.6;2.5;;;;;;;18.59;62.60938;959.6255;;;;
2019/08/15 08:28:56;;;;;;;4.1;2.6;;;;;;;18.52;62.83496;959.6768;;;;
2019/08/15 08:31:21;;;;;;;4.2;2.6;;;;;;;18.64;62.96875;959.6614;;;;
2019/08/15 08:33:46;;;;;;;4;2.7;;;;;;;18.63;63.30762;959.6844;;;;
2019/08/15 08:36:11;;;;;;;5.1;2.7;;;;;;;18.8;63.17871;959.7372;;;;
2019/08/15 08:38:37;;;;;;;6.2;2.7;;;;;;;18.89;62.67773;959.764;;;;
2019/08/15 08:41:02;;;;;;;5.3;3.1;;;;;;;19.03;62.00293;959.7153;;;;
2019/08/15 08:43:27;;;;;;;5;2.7;;;;;;;19.3;60.98535;959.8006;;;;
2019/08/15 08:45:52;;;;;;;4.2;2.5;;;;;;;19.31;59.00293;959.7961;;;;
2019/08/15 08:48:17;;;;;;;3.8;3.1;;;;;;;19.1;60.71191;959.81;;;;
2019/08/15 08:50:42;;;;;;;4.9;2.9;;;;;;;18.92;61.16699;959.8918;;;;
2019/08/15 08:53:07;;;;;;;4.6;2.8;;;;;;;19.18;61.09766;959.9339;;;;
2019/08/15 08:55:32;;;;;;;5;3;;;;;;;19.22;61.38574;959.9933;;;;
2019/08/15 08:57:57;;;;;;;5.1;2.5;;;;;;;19.19;61.40332;959.988;;;;
2019/08/15 09:00:22;;;;;;;6.4;2.8;;;;;;;19.27;61.87402;960.0109;;;;
2019/08/15 09:02:47;;;;;;;7.7;5.8;;;;;;;19.27;62.02539;960.0613;;;;
2019/08/15 09:05:13;;;;;;;6;2.9;;;;;;;19.56;65.27344;960.0578;;;;
2019/08/15 09:07:39;;;;;;;3.7;2.3;;;;;;;19.35;61.83594;960.0956;;;;
2019/08/15 09:10:03;;;;;;;4.1;2.7;;;;;;;19.47;62.39551;960.0858;;;;
2019/08/15 09:12:28;;;;;;;3.8;2.3;;;;;;;19.59;60.74316;960.1392;;;;
2019/08/15 09:14:53;;;;;;;3.8;2.1;;;;;;;19.42;60.67285;960.0666;;;;
2019/08/15 09:17:18;;;;;;;3.8;2.4;;;;;;;19.31;61.03418;960.1531;;;;
2019/08/15 09:19:43;;;;;;;4.9;2.4;;;;;;;19.23;61.33984;960.1989;;;;
2019/08/15 09:22:08;;;;;;;3.6;2.4;;;;;;;18.95;62.62695;960.1836;;;;
2019/08/15 09:24:33;;;;;;;3;2.4;;;;;;;18.77;63.52637;960.1909;;;;
2019/08/15 09:26:58;;;;;;;5.8;2.3;;;;;;;18.74;64.14453;960.2434;;;;
2019/08/15 09:29:23;;;;;;;2.9;2.5;;;;;;;18.68;64.06445;960.2008;;;;
2019/08/15 09:31:48;;;;;;;5.5;2.7;;;;;;;18.39;64.75977;960.2889;;;;
2019/08/15 09:34:14;;;;;;;5.2;2.6;;;;;;;18.28;68.25977;960.4066;;;;
2019/08/15 09:36:39;;;;;;;6.1;3.2;;;;;;;17.84;73.3623;960.4128;;;;
2019/08/15 09:39:04;;;;;;;8.6;3.8;;;;;;;17.5;80.16016;960.4744;;;;
2019/08/15 09:41:29;;;;;;;6.3;3.2;;;;;;;17.28;80.49316;960.4409;;;;
2019/08/15 09:43:54;;;;;;;4.1;3.1;;;;;;;17.22;81.21777;960.4158;;;;
2019/08/15 09:46:19;;;;;;;5;3.4;;;;;;;17.05;83.81445;960.4924;;;;
2019/08/15 09:48:44;;;;;;;3.3;3;;;;;;;17.04;82.76172;960.4341;;;;
2019/08/15 09:51:09;;;;;;;3.6;2.9;;;;;;;17.02;81.08789;960.3533;;;;
2019/08/15 09:53:35;;;;;;;4;3.1;;;;;;;17.11;83.23047;960.3727;;;;
2019/08/15 09:56:00;;;;;;;3.3;3;;;;;;;17.06;83.25586;960.2651;;;;
2019/08/15 09:58:25;;;;;;;6.1;3.4;;;;;;;16.99;84.40039;960.18;;;;
2019/08/15 10:00:50;;;;;;;5.1;3.4;;;;;;;16.92;85.70605;960.1867;;;;
2019/08/15 10:03:15;;;;;;;4.8;3.5;;;;;;;16.99;84.06152;960.1981;;;;
2019/08/15 10:05:40;;;;;;;5.2;3.5;;;;;;;16.98;84.95898;960.1806;;;;
2019/08/15 10:08:06;;;;;;;4;3.4;;;;;;;17.06;83.11523;960.2413;;;;
2019/08/15 10:10:30;;;;;;;4.1;3.3;;;;;;;17.07;82.94336;960.2665;;;;
2019/08/15 10:12:55;;;;;;;4.6;3.7;;;;;;;17.11;83.93164;960.2466;;;;
2019/08/15 10:15:21;;;;;;;5.3;3.2;;;;;;;17.23;82.33105;960.2634;;;;
2019/08/15 10:17:46;;;;;;;4.7;3.2;;;;;;;17.27;80.50293;960.2788;;;;
2019/08/15 10:20:11;;;;;;;5.8;3.8;;;;;;;17.02;82.44336;960.3445;;;;
2019/08/15 10:22:36;;;;;;;4.9;3.7;;;;;;;16.86;84.21094;960.1994;;;;
2019/08/15 10:25:01;;;;;;;5.2;3.5;;;;;;;16.9;83.66895;960.1003;;;;
2019/08/15 10:27:27;;;;;;;5;3.8;;;;;;;16.7;87.20313;959.9858;;;;
2019/08/15 10:29:52;;;;;;;5;3.9;;;;;;;16.51;85.19336;959.9995;;;;
2019/08/15 10:32:17;;;;;;;4.3;3.9;;;;;;;16.67;87.69922;959.9842;;;;
2019/08/15 10:34:42;;;;;;;4.6;3.9;;;;;;;16.87;88.9082;959.9961;;;;
2019/08/15 10:37:07;;;;;;;5.1;4.1;;;;;;;17.1;87.77344;959.9166;;;;
2019/08/15 10:39:33;;;;;;;4.2;3.8;;;;;;;17.28;88.17188;959.8727;;;;
2019/08/15 10:41:57;;;;;;;5.8;4;;;;;;;17.24;87.35645;959.8918;;;;
2019/08/15 10:44:23;;;;;;;4.4;3.6;;;;;;;17.21;82.73535;959.9052;;;;
2019/08/15 10:46:48;;;;;;;4.6;3.2;;;;;;;17.27;83.21289;959.8645;;;;
2019/08/15 10:49:13;;;;;;;4.3;3.4;;;;;;;17.22;85.92773;959.9446;;;;
2019/08/15 10:51:38;;;;;;;4.1;3.7;;;;;;;17.33;84.18457;959.8748;;;;
2019/08/15 10:54:04;;;;;;;6.2;3.7;;;;;;;17.43;84.14551;959.8855;;;;
2019/08/15 10:56:29;;;;;;;5.3;3.3;;;;;;;17.49;82.83594;959.8933;;;;
2019/08/15 10:58:54;;;;;;;3.8;3.3;;;;;;;17.68;83.79395;959.8769;;;;
2019/08/15 11:01:19;;;;;;;4.6;3.3;;;;;;;17.78;84.80957;959.8485;;;;
2019/08/15 11:03:44;;;;;;;4.8;3.1;;;;;;;17.78;80.93652;959.8649;;;;
2019/08/15 11:06:09;;;;;;;4.9;2.9;;;;;;;18.01;76.21387;959.8911;;;;
2019/08/15 11:08:34;;;;;;;3.7;2.7;;;;;;;18.14;76.91504;959.8402;;;;
2019/08/15 11:11:00;;;;;;;4.1;2.6;;;;;;;18.08;80.83789;959.8837;;;;
2019/08/15 11:13:25;;;;;;;3.2;2.9;;;;;;;18.05;81.07715;959.9055;;;;
2019/08/15 11:15:50;;;;;;;4.2;2.8;;;;;;;18.02;79.78613;959.9139;;;;
2019/08/15 11:18:16;;;;;;;3.7;2.8;;;;;;;17.81;77.50098;959.8624;;;;
2019/08/15 11:20:41;;;;;;;4.9;2.9;;;;;;;17.94;81.60938;959.8527;;;;
2019/08/15 11:23:07;;;;;;;4.2;2.7;;;;;;;17.97;79.49414;959.8822;;;;
2019/08/15 11:25:32;;;;;;;3.1;2.6;;;;;;;17.97;77.04883;959.9201;;;;
2019/08/15 11:27:57;;;;;;;4.3;2.7;;;;;;;17.88;80.13477;959.967;;;;
2019/08/15 11:30:22;;;;;;;4.5;2.6;;;;;;;18.04;77.62402;959.9436;;;;
2019/08/15 11:32:47;;;;;;;3.4;2.8;;;;;;;17.97;76.93066;959.9564;;;;
2019/08/15 11:35:12;;;;;;;4.3;2.9;;;;;;;18.02;77.41992;959.9709;;;;
2019/08/15 11:37:37;;;;;;;4.3;2.8;;;;;;;18.06;77.35938;959.9811;;;;
2019/08/15 11:40:02;;;;;;;3.2;2.5;;;;;;;18.1;77.07227;959.8942;;;;
2019/08/15 11:42:28;;;;;;;3.5;2.5;;;;;;;18.32;76.2334;960;;;;
2019/08/15 11:44:53;;;;;;;6.7;3;;;;;;;18.36;80.71387;959.8914;;;;
2019/08/15 11:47:18;;;;;;;4.3;2.7;;;;;;;18.37;78.72461;959.8231;;;;
2019/08/15 11:49:43;;;;;;;6.6;3.8;;;;;;;18.61;75.67285;959.8599;;;;
2019/08/15 11:52:08;;;;;;;7.8;5.4;;;;;;;18.78;72.48926;959.8455;;;;
2019/08/15 11:54:33;;;;;;;6.2;4;;;;;;;18.88;75.46094;959.7841;;;;
2019/08/15 11:56:58;;;;;;;4.1;2.4;;;;;;;18.93;69.80371;959.762;;;;
2019/08/15 11:59:24;;;;;;;4.5;2.8;;;;;;;18.95;71.4375;959.7649;;;;
2019/08/15 12:01:49;;;;;;;3;2.1;;;;;;;19.12;72.13477;959.7478;;;;
2019/08/15 12:04:14;;;;;;;3.7;2.7;;;;;;;19.17;71.35547;959.7833;;;;
2019/08/15 12:06:39;;;;;;;3;2.4;;;;;;;19.23;72.63184;959.8089;;;;
2019/08/15 12:09:05;;;;;;;4;2.1;;;;;;;19.25;71.60352;959.7938;;;;
2019/08/15 12:11:30;;;;;;;4.6;2.3;;;;;;;19.36;71.30469;959.8295;;;;
2019/08/15 12:13:55;;;;;;;4;2;;;;;;;19.32;71.44922;959.7712;;;;
2019/08/15 12:16:20;;;;;;;3.5;2.1;;;;;;;19.39;70.59277;959.7712;;;;
2019/08/15 12:18:45;;;;;;;2.6;1.9;;;;;;;19.46;70.47461;959.7451;;;;
2019/08/15 12:21:10;;;;;;;4.3;2.3;;;;;;;19.39;70.6748;959.7158;;;;
2019/08/15 12:23:35;;;;;;;3.1;2;;;;;;;19.34;69.57422;959.7338;;;;
2019/08/15 12:26:01;;;;;;;3.2;1.8;;;;;;;19.7;68.24512;959.759;;;;
2019/08/15 12:28:26;;;;;;;2.6;1.5;;;;;;;19.92;67.20898;959.7033;;;;
2019/08/15 12:30:51;;;;;;;2.4;1.5;;;;;;;20.2;66.88672;959.6395;;;;
2019/08/15 12:33:16;;;;;;;2.5;1.4;;;;;;;20.51;66.68652;959.6442;;;;
2019/08/15 12:35:41;;;;;;;2.3;1.5;;;;;;;20.55;63.10059;959.5918;;;;
2019/08/15 12:38:06;;;;;;;3.4;1.5;;;;;;;20.49;64.72949;959.6058;;;;
2019/08/15 12:40:32;;;;;;;2.7;1.5;;;;;;;20.81;64.1748;959.4331;;;;
2019/08/15 12:42:57;;;;;;;3.1;1.5;;;;;;;21.01;65.5;959.4322;;;;
2019/08/15 12:45:22;;;;;;;4.3;1.7;;;;;;;21.37;60.40918;959.3745;;;;
2019/08/15 12:47:47;;;;;;;2.8;1.5;;;;;;;21.49;61.2168;959.3384;;;;
2019/08/15 12:50:12;;;;;;;3.9;1.7;;;;;;;21.27;60.04199;959.4453;;;;
2019/08/15 12:52:37;;;;;;;2.5;1.6;;;;;;;21.21;59.74023;959.3779;;;;
2019/08/15 12:55:03;;;;;;;3.1;1.4;;;;;;;21.31;59.16309;959.3597;;;;
2019/08/15 12:57:28;;;;;;;3.2;1.4;;;;;;;21.5;59.9082;959.3606;;;;
2019/08/15 12:59:53;;;;;;;3.4;1.7;;;;;;;21.92;58.85547;959.3973;;;;
2019/08/15 13:02:18;;;;;;;2.6;1.4;;;;;;;21.88;57.08984;959.3155;;;;
2019/08/15 13:04:43;;;;;;;3.2;1.3;;;;;;;21.93;56.38867;959.2776;;;;
2019/08/15 13:07:08;;;;;;;2.1;1.5;;;;;;;21.84;57.28516;959.2302;;;;
2019/08/15 13:09:34;;;;;;;3.1;1.4;;;;;;;21.95;57.61816;959.2846;;;;
2019/08/15 13:11:59;;;;;;;1.8;1.4;;;;;;;21.68;58.13965;959.1511;;;;
2019/08/15 13:14:24;;;;;;;3;1.5;;;;;;;21.43;58.53027;959.1789;;;;
2019/08/15 13:16:49;;;;;;;2;1.5;;;;;;;21.27;57.87305;959.1028;;;;
2019/08/15 13:19:14;;;;;;;2.3;1.4;;;;;;;21.48;58.01758;959.147;;;;
2019/08/15 13:21:39;;;;;;;4.2;1.5;;;;;;;21.37;59.17188;959.1115;;;;
2019/08/15 13:24:05;;;;;;;2.6;1.3;;;;;;;21.37;58.42871;959.1083;;;;
2019/08/15 13:26:30;;;;;;;3;1.5;;;;;;;21.05;59.24512;959.0641;;;;
2019/08/15 13:28:55;;;;;;;2.7;1.5;;;;;;;21.31;58.93945;959.0531;;;;
2019/08/15 13:31:20;;;;;;;3.5;1.6;;;;;;;21.5;58.30469;959.0991;;;;
2019/08/15 13:33:46;;;;;;;2.7;1.5;;;;;;;21.68;58.75293;959.0614;;;;
2019/08/15 13:36:11;;;;;;;3.1;1.5;;;;;;;22.07;57.84766;959.0356;;;;
2019/08/15 13:38:36;;;;;;;2.4;1.6;;;;;;;22.11;57.60449;959.0461;;;;
2019/08/15 13:41:01;;;;;;;3.3;1.9;;;;;;;21.88;58.61328;959.103;;;;
2019/08/15 13:43:26;;;;;;;4.3;1.8;;;;;;;22.1;57.2832;959.0606;;;;
2019/08/15 13:45:51;;;;;;;3.9;1.7;;;;;;;22.17;57.6123;958.9885;;;;
2019/08/15 13:48:16;;;;;;;3.4;1.8;;;;;;;22.38;57.5332;959.0491;;;;
2019/08/15 13:50:41;;;;;;;4;1.7;;;;;;;22.09;58.22754;959.1454;;;;
2019/08/15 13:53:06;;;;;;;3.3;1.6;;;;;;;21.86;58.97656;959.1292;;;;
2019/08/15 13:55:32;;;;;;;2.3;1.5;;;;;;;21.41;60.45117;959.244;;;;
2019/08/15 13:57:57;;;;;;;2.7;1.6;;;;;;;21.43;60.93652;959.2445;;;;
2019/08/15 14:00:22;;;;;;;2.6;1.7;;;;;;;21.41;60.23828;959.1869;;;;
2019/08/15 14:02:47;;;;;;;4.3;1.7;;;;;;;21.58;60.35547;959.1688;;;;
2019/08/15 14:05:12;;;;;;;5.5;1.9;;;;;;;21.46;59.62012;959.1632;;;;
2019/08/15 14:07:37;;;;;;;3;2;;;;;;;21.11;61.3877;959.2841;;;;
2019/08/15 14:10:02;;;;;;;2.4;1.7;;;;;;;20.93;62.25977;959.2656;;;;
2019/08/15 14:12:27;;;;;;;3.7;1.8;;;;;;;20.71;63.34766;959.3301;;;;
2019/08/15 14:14:53;;;;;;;4.5;2.3;;;;;;;20.52;64.20215;959.3553;;;;
2019/08/15 14:17:18;;;;;;;3.4;2;;;;;;;20.36;65.00391;959.359;;;;
2019/08/15 14:19:43;;;;;;;3.1;2;;;;;;;19.99;65.99707;959.3736;;;;
2019/08/15 14:22:08;;;;;;;3.6;2.2;;;;;;;19.98;66.44043;959.4034;;;;
2019/08/15 14:24:33;;;;;;;3;1.9;;;;;;;20.08;67.26855;959.3886;;;;
2019/08/15 14:26:58;;;;;;;2.9;1.8;;;;;;;20.11;67.24902;959.3391;;;;